Weather at Lea County-Zip Franklin Memorial Airport

Public forecast

Using degrees Fahrenheit for public forecast. Weather courtesy of forecast.io.

Closest aviation weather report (METAR) to Lea County-Zip Franklin Memorial Airport

Closest report is Lea County Regional Airport, 18.7 nm (34.5 km) SSE. Retrieved 2021/12/01 11:35 UTC (17 minutes ago):

KHOB 011135Z AUTO 29008KT 10SM CLR 05/M01 A3014 RMK AO2

Closest aviation forecast (TAF) to Lea County-Zip Franklin Memorial Airport

Closest forecast is Lea County Regional Airport, 18.7 nm (34.5 km) SSE. Retrieved 2021/12/01 06:22 UTC (5 hours ago):

TAF KHOB 010520Z 0106/0206 32006KT P6SM FEW200